SOHO CELIAS Proton Monitor
Solar Wind Parameters for Carrington Rotation 1932 (hour averages)


Listed Parameters:

Measurement time (Year, Day of Year, Hour, Minute, Second)
Proton speed [km/sec]
Proton density [protons per cubic centimeter]
Most probable proton thermal speed [km/sec]
Arrival direction [degrees from north-south, with + meaning FROM the south).
(SPEED=-1 means NOT AVAILABLE)

SOHO spacecraft coordinates: based on SOHO PRE orbit files
GSE X, Y, Z [Earth Radii] 1 RE == 6378 km
Heliocentric Range [106 km],
Heliographic Latitude and Longitude [deg].

FORMAT=(1X,I2,1X,I3,1X,I2,1X,I2,1X,I2,F7.1,3F7.2,3X,3F7.1,F7.1,F7.2,F8.2)



                              CELIAS/MTOF/PM DATA                      SOHO ORBIT DATA              
 InSitu_Start__Time       [km/s]  [cm-3] [km/s]  [deg]      [Re]   [Re]   [Re]  [Mkm]  [deg]  [deg]
 YY MON DY DOY:HH:MM:SS   SPEED     Np     Vth    N/S      GSE_X  GSE_Y  GSE_Z  RANGE  HGLAT  HGLONG
 98 JAN 22  22:12:00:00     382   11.2      34    0.1      206.2  -97.1    3.2  145.9   -5.3   360.0
 98 JAN 22  22:13:00:00     390    8.8      35   -1.5      206.2  -97.0    3.2  145.9   -5.3   359.0
 98 JAN 22  22:14:00:00     394   12.9      37   -1.9      206.2  -96.9    3.3  145.9   -5.3   358.4
 98 JAN 22  22:15:00:00     379   14.5      35   -2.0      206.1  -96.9    3.3  145.9   -5.3   357.9
 98 JAN 22  22:16:00:00     380   10.5      35   -2.0      206.1  -96.8    3.3  145.9   -5.3   357.3
 98 JAN 22  22:17:00:00     383   10.6      34   -1.2      206.1  -96.8    3.4  145.9   -5.3   356.8
 98 JAN 22  22:18:00:00     389    9.3      35   -1.7      206.0  -96.7    3.4  145.9   -5.3   356.2
 98 JAN 22  22:19:00:00     388    7.7      32   -2.5      206.0  -96.7    3.4  145.9   -5.3   355.7
 98 JAN 22  22:20:00:00     403    7.0      33   -1.8      206.0  -96.6    3.4  145.9   -5.3   355.1
 98 JAN 22  22:21:00:00     426    8.0      38   -1.9      205.9  -96.5    3.5  145.9   -5.3   354.6
 98 JAN 22  22:22:00:00     412    8.6      35   -2.3      205.9  -96.5    3.5  145.9   -5.3   354.0
 98 JAN 22  22:23:00:00     401    7.6      31   -2.5      205.9  -96.4    3.5  145.9   -5.3   353.5
 98 JAN 23  23:00:00:00     402    6.9      32   -2.4      205.8  -96.4    3.5  145.9   -5.3   352.9
 98 JAN 23  23:01:00:00     395    8.7      31   -3.5      205.8  -96.3    3.6  145.9   -5.3   352.4
 98 JAN 23  23:02:00:00     397    7.5      32   -3.2      205.8  -96.3    3.6  145.9   -5.3   351.8
 98 JAN 23  23:03:00:00     395    7.2      32   -3.2      205.8  -96.2    3.6  145.9   -5.3   351.3
 98 JAN 23  23:04:00:00     392    8.2      29   -3.6      205.7  -96.1    3.7  145.9   -5.3   350.7
 98 JAN 23  23:05:00:00     391    8.5      28   -4.1      205.7  -96.1    3.7  145.9   -5.3   350.2
 98 JAN 23  23:06:00:00     394    7.5      30   -3.2      205.7  -96.0    3.7  145.9   -5.3   349.6
 98 JAN 23  23:07:00:00     390    9.1      28   -4.4      205.6  -96.0    3.7  145.9   -5.3   349.1
 98 JAN 23  23:08:00:00     387    7.8      26   -4.2      205.6  -95.9    3.8  145.9   -5.3   348.5
 98 JAN 23  23:09:00:00     386    7.6      26   -4.2      205.6  -95.8    3.8  145.9   -5.3   348.0
 98 JAN 23  23:10:00:00     384    7.6      26   -3.9      205.5  -95.8    3.8  145.9   -5.4   347.4
 98 JAN 23  23:11:00:00     384    8.1      26   -4.1      205.5  -95.7    3.9  145.9   -5.4   346.9
 98 JAN 23  23:12:00:00     385    7.8      27   -4.0      205.5  -95.6    3.9  145.9   -5.4   346.3
 98 JAN 23  23:13:00:00     388    7.7      27   -4.0      205.4  -95.6    3.9  145.9   -5.4   345.8
 98 JAN 23  23:14:00:00     381    7.6      26   -3.7      205.4  -95.5    3.9  145.9   -5.4   345.2
 98 JAN 23  23:15:00:00     379    8.1      25   -4.2      205.4  -95.5    4.0  145.9   -5.4   344.7
 98 JAN 23  23:16:00:00     375    7.0      25   -3.6      205.3  -95.4    4.0  145.9   -5.4   344.1
 98 JAN 23  23:17:00:00     372    6.6      25   -3.0      205.3  -95.3    4.0  145.9   -5.4   343.6
 98 JAN 23  23:18:00:00     372    6.5      25   -3.0      205.3  -95.3    4.1  145.9   -5.4   343.0
 98 JAN 23  23:19:00:00     371    6.5      26   -2.8      205.3  -95.2    4.1  145.9   -5.4   342.5
 98 JAN 23  23:20:00:00     370    5.1      31   -1.9      205.2  -95.1    4.1  145.9   -5.4   341.9
 98 JAN 23  23:21:00:00     366    4.7      31   -1.9      205.2  -95.1    4.1  145.9   -5.4   341.4
 98 JAN 23  23:22:00:00     365    5.0      30   -1.8      205.2  -95.0    4.2  146.0   -5.4   340.8
 98 JAN 23  23:23:00:00     362    5.5      27   -1.9      205.1  -95.0    4.2  146.0   -5.4   340.3
 98 JAN 24  24:00:00:00     365    6.8      26   -2.8      205.1  -94.9    4.2  146.0   -5.4   339.7
 98 JAN 24  24:01:00:00     363    6.4      26   -2.2      205.1  -94.8    4.2  146.0   -5.4   339.2
 98 JAN 24  24:02:00:00     361    6.2      28   -1.4      205.0  -94.8    4.3  146.0   -5.4   338.6
 98 JAN 24  24:03:00:00     366    6.9      26   -1.3      205.0  -94.7    4.3  146.0   -5.4   338.1
 98 JAN 24  24:04:00:00     375    9.7      26    0.0      205.0  -94.6    4.3  146.0   -5.4   337.5
 98 JAN 24  24:05:00:00     405   22.1      32    4.0      204.9  -94.6    4.4  146.0   -5.4   337.0
 98 JAN 24  24:06:00:00     398   22.8      34    3.6      204.9  -94.5    4.4  146.0   -5.4   336.4
 98 JAN 24  24:07:00:00     396   23.4      33    3.7      204.9  -94.4    4.4  146.0   -5.4   335.9
 98 JAN 24  24:08:00:00     421   12.1      38    1.1      204.9  -94.4    4.4  146.0   -5.4   335.3
 98 JAN 24  24:09:00:00     401    8.2      33    1.4      204.8  -94.3    4.5  146.0   -5.4   334.8
 98 JAN 24  24:10:00:00     397    8.1      33    2.0      204.8  -94.2    4.5  146.0   -5.4   334.2
 98 JAN 24  24:11:00:00     397    8.9      31    2.9      204.8  -94.2    4.5  146.0   -5.4   333.7
 98 JAN 24  24:12:00:00     400   15.5      30    4.2      204.7  -94.1    4.5  146.0   -5.4   333.1
 98 JAN 24  24:13:00:00     402   14.2      29    3.7      204.7  -94.0    4.6  146.0   -5.4   332.6
 98 JAN 24  24:14:00:00     392   14.7      28    3.5      204.7  -94.0    4.6  146.0   -5.4   332.0
 98 JAN 24  24:15:00:00     385   10.9      27    1.4      204.6  -93.9    4.6  146.0   -5.5   331.5
 98 JAN 24  24:16:00:00     380   10.4      26    0.4      204.6  -93.8    4.7  146.0   -5.5   330.9
 98 JAN 24  24:17:00:00     383    9.5      27   -0.5      204.6  -93.7    4.7  146.0   -5.5   330.4
 98 JAN 24  24:18:00:00     381    9.1      26   -0.7      204.5  -93.7    4.7  146.0   -5.5   329.8
 98 JAN 24  24:19:00:00     380    9.9      26    0.8      204.5  -93.6    4.7  146.0   -5.5   329.3
 98 JAN 24  24:20:00:00     399    6.0      39   -0.4      204.5  -93.5    4.8  146.0   -5.5   328.7
 98 JAN 24  24:21:00:00     404    5.9      42   -1.7      204.5  -93.5    4.8  146.0   -5.5   328.2
 98 JAN 24  24:22:00:00     397    8.2      35   -0.8      204.4  -93.4    4.8  146.0   -5.5   327.6
 98 JAN 24  24:23:00:00     396    8.2      36   -1.0      204.4  -93.3    4.8  146.0   -5.5   327.1
 98 JAN 25  25:00:00:00     404    7.6      34   -0.8      204.4  -93.3    4.9  146.0   -5.5   326.5
 98 JAN 25  25:01:00:00     415    8.7      36   -0.9      204.3  -93.2    4.9  146.0   -5.5   326.0
 98 JAN 25  25:02:00:00     436    7.9      42   -1.3      204.3  -93.1    4.9  146.0   -5.5   325.4
 98 JAN 25  25:03:00:00     451    8.9      42   -2.0      204.3  -93.0    5.0  146.0   -5.5   324.9
 98 JAN 25  25:04:00:00     460    8.6      41   -3.1      204.2  -93.0    5.0  146.0   -5.5   324.3
 98 JAN 25  25:05:00:00     462    7.6      42   -2.3      204.2  -92.9    5.0  146.0   -5.5   323.8
 98 JAN 25  25:06:00:00     456    6.2      41   -1.5      204.2  -92.8    5.0  146.0   -5.5   323.2
 98 JAN 25  25:07:00:00     445    5.1      41   -1.3      204.2  -92.8    5.1  146.0   -5.5   322.7
 98 JAN 25  25:08:00:00     438    4.4      39   -1.1      204.1  -92.7    5.1  146.0   -5.5   322.1
 98 JAN 25  25:09:00:00     436    4.7      38   -1.3      204.1  -92.6    5.1  146.0   -5.5   321.6
 98 JAN 25  25:10:00:00     426    5.2      36   -0.3      204.1  -92.5    5.1  146.0   -5.5   321.0
 98 JAN 25  25:11:00:00     423    6.3      37   -3.0      204.0  -92.5    5.2  146.0   -5.5   320.5
 98 JAN 25  25:12:00:00     420    7.5      35   -3.3      204.0  -92.4    5.2  146.0   -5.5   319.9
 98 JAN 25  25:13:00:00     414    9.2      31   -2.8      204.0  -92.3    5.2  146.0   -5.5   319.4
 98 JAN 25  25:14:00:00     405    9.6      30   -3.2      203.9  -92.2    5.3  146.0   -5.5   318.8
 98 JAN 25  25:15:00:00     407    8.4      30   -3.0      203.9  -92.2    5.3  146.0   -5.5   318.3
 98 JAN 25  25:16:00:00     394    6.4      27   -2.6      203.9  -92.1    5.3  146.0   -5.5   317.7
 98 JAN 25  25:17:00:00     381    8.6      25   -1.9      203.9  -92.0    5.3  146.0   -5.5   317.2
 98 JAN 25  25:18:00:00     380    9.2      25    0.3      203.8  -91.9    5.4  146.0   -5.5   316.6
 98 JAN 25  25:19:00:00     393    8.0      29   -1.7      203.8  -91.9    5.4  146.0   -5.5   316.1
 98 JAN 25  25:20:00:00     396    7.0      29   -1.8      203.8  -91.8    5.4  146.0   -5.6   315.5
 98 JAN 25  25:21:00:00     394    7.1      29   -2.6      203.7  -91.7    5.4  146.0   -5.6   315.0
 98 JAN 25  25:22:00:00     389    6.7      28   -2.5      203.7  -91.6    5.5  146.0   -5.6   314.4
 98 JAN 25  25:23:00:00     400    5.3      31   -3.5      203.7  -91.6    5.5  146.0   -5.6   313.9
 98 JAN 26  26:00:00:00     394    5.1      30   -3.0      203.7  -91.5    5.5  146.0   -5.6   313.3
 98 JAN 26  26:01:00:00     400    4.6      31   -2.9      203.6  -91.4    5.5  146.0   -5.6   312.8
 98 JAN 26  26:02:00:00     399    5.5      30   -3.4      203.6  -91.3    5.6  146.0   -5.6   312.2
 98 JAN 26  26:03:00:00     409    3.5      35   -2.9      203.6  -91.2    5.6  146.0   -5.6   311.7
 98 JAN 26  26:04:00:00     422    3.3      37   -3.5      203.5  -91.2    5.6  146.0   -5.6   311.1
 98 JAN 26  26:05:00:00     417    4.0      37   -3.1      203.5  -91.1    5.7  146.0   -5.6   310.6
 98 JAN 26  26:06:00:00     422    4.8      39   -2.3      203.5  -91.0    5.7  146.0   -5.6   310.0
 98 JAN 26  26:07:00:00     448    6.5      45   -1.3      203.4  -90.9    5.7  146.0   -5.6   309.5
 98 JAN 26  26:08:00:00     437    7.1      41   -1.8      203.4  -90.9    5.7  146.0   -5.6   308.9
 98 JAN 26  26:09:00:00     438    6.2      41   -0.6      203.4  -90.8    5.8  146.0   -5.6   308.4
 98 JAN 26  26:10:00:00     437    5.7      41   -1.0      203.4  -90.7    5.8  146.0   -5.6   307.8
 98 JAN 26  26:11:00:00     432    6.0      39   -0.6      203.3  -90.6    5.8  146.0   -5.6   307.3
 98 JAN 26  26:12:00:00     426    6.1      39   -0.6      203.3  -90.5    5.8  146.0   -5.6   306.7
 98 JAN 26  26:13:00:00     421    5.8      38   -2.0      203.3  -90.5    5.9  146.0   -5.6   306.2
 98 JAN 26  26:14:00:00     418    5.4      38   -1.9      203.2  -90.4    5.9  146.0   -5.6   305.6
 98 JAN 26  26:15:00:00     414    5.3      36   -1.2      203.2  -90.3    5.9  146.0   -5.6   305.1
 98 JAN 26  26:16:00:00     404    5.6      32   -1.4      203.2  -90.2    5.9  146.0   -5.6   304.5
 98 JAN 26  26:17:00:00     394    5.4      29   -1.1      203.2  -90.1    6.0  146.0   -5.6   304.0
 98 JAN 26  26:18:00:00     385    5.7      26   -0.5      203.1  -90.0    6.0  146.0   -5.6   303.4
 98 JAN 26  26:19:00:00     379    5.8      25   -0.7      203.1  -90.0    6.0  146.0   -5.6   302.9
 98 JAN 26  26:20:00:00     375    5.7      24   -1.3      203.1  -89.9    6.1  146.0   -5.6   302.3
 98 JAN 26  26:21:00:00     371    6.7      25   -0.8      203.0  -89.8    6.1  146.0   -5.6   301.8
 98 JAN 26  26:22:00:00     364    5.6      24   -1.0      203.0  -89.7    6.1  146.0   -5.6   301.2
 98 JAN 26  26:23:00:00     359    7.3      23   -0.7      203.0  -89.6    6.1  146.0   -5.6   300.7
 98 JAN 27  27:00:00:00     360    8.0      23    0.1      202.9  -89.6    6.2  146.0   -5.6   300.1
 98 JAN 27  27:01:00:00     358    7.1      24   -0.2      202.9  -89.5    6.2  146.0   -5.6   299.6
 98 JAN 27  27:02:00:00     365    9.0      26   -2.0      202.9  -89.4    6.2  146.0   -5.6   299.0
 98 JAN 27  27:03:00:00     384   11.5      31   -0.1      202.9  -89.3    6.2  146.0   -5.7   298.5
 98 JAN 27  27:04:00:00     405    8.4      37    0.2      202.8  -89.2    6.3  146.0   -5.7   297.9
 98 JAN 27  27:05:00:00     397    7.1      31   -1.1      202.8  -89.1    6.3  146.0   -5.7   297.4
 98 JAN 27  27:06:00:00     423    8.7      45    0.7      202.8  -89.1    6.3  146.0   -5.7   296.8
 98 JAN 27  27:07:00:00     438   10.8      51    2.3      202.7  -89.0    6.3  146.0   -5.7   296.3
 98 JAN 27  27:08:00:00     447    8.6      47    2.6      202.7  -88.9    6.4  146.0   -5.7   295.7
 98 JAN 27  27:09:00:00     436    6.4      45    2.5      202.7  -88.8    6.4  146.0   -5.7   295.2
 98 JAN 27  27:10:00:00     435    6.4      42    1.5      202.7  -88.7    6.4  146.0   -5.7   294.6
 98 JAN 27  27:11:00:00     442    6.9      41    1.9      202.6  -88.6    6.4  146.0   -5.7   294.1
 98 JAN 27  27:12:00:00     443    6.3      42    1.7      202.6  -88.5    6.5  146.0   -5.7   293.5
 98 JAN 27  27:13:00:00     452    5.0      42    2.0      202.6  -88.5    6.5  146.0   -5.7   293.0
 98 JAN 27  27:14:00:00     444    3.8      41    1.4      202.5  -88.4    6.5  146.0   -5.7   292.4
 98 JAN 27  27:15:00:00     440    4.9      43    1.4      202.5  -88.3    6.6  146.0   -5.7   291.9
 98 JAN 27  27:16:00:00     444    4.4      46    2.4      202.5  -88.2    6.6  146.0   -5.7   291.3
 98 JAN 27  27:17:00:00     438    3.9      42    2.1      202.4  -88.1    6.6  146.0   -5.7   290.8
 98 JAN 27  27:18:00:00     436    4.3      40    2.5      202.4  -88.0    6.6  146.0   -5.7   290.2
 98 JAN 27  27:19:00:00     429    5.0      40    2.9      202.4  -87.9    6.7  146.0   -5.7   289.7
 98 JAN 27  27:20:00:00     423    3.7      39    1.7      202.4  -87.9    6.7  146.0   -5.7   289.1
 98 JAN 27  27:21:00:00     422    3.9      39    1.2      202.3  -87.8    6.7  146.0   -5.7   288.6
 98 JAN 27  27:22:00:00     414    4.2      36    1.5      202.3  -87.7    6.7  146.0   -5.7   288.0
 98 JAN 27  27:23:00:00     417    4.2      37    1.7      202.3  -87.6    6.8  146.0   -5.7   287.5
 98 JAN 28  28:00:00:00     407    5.0      34    1.6      202.2  -87.5    6.8  146.0   -5.7   286.9
 98 JAN 28  28:01:00:00     409    5.0      35    1.2      202.2  -87.4    6.8  146.0   -5.7   286.4
 98 JAN 28  28:02:00:00     401    5.3      30    1.0      202.2  -87.3    6.8  146.0   -5.7   285.8
 98 JAN 28  28:03:00:00     388    5.5      27    0.3      202.2  -87.2    6.9  146.0   -5.7   285.3
 98 JAN 28  28:04:00:00     376    5.6      25   -0.1      202.1  -87.1    6.9  146.0   -5.7   284.7
 98 JAN 28  28:05:00:00     374    5.3      24   -0.6      202.1  -87.1    6.9  146.0   -5.7   284.2
 98 JAN 28  28:06:00:00     366    4.9      26    0.3      202.1  -87.0    6.9  146.0   -5.7   283.6
 98 JAN 28  28:07:00:00     366    4.1      27   -0.5      202.0  -86.9    7.0  146.0   -5.7   283.1
 98 JAN 28  28:08:00:00     365    4.7      27   -0.5      202.0  -86.8    7.0  146.0   -5.7   282.5
 98 JAN 28  28:09:00:00     366    5.2      26    0.8      202.0  -86.7    7.0  146.0   -5.7   282.0
 98 JAN 28  28:10:00:00     366    5.0      27    0.8      201.9  -86.6    7.0  146.0   -5.8   281.4
 98 JAN 28  28:11:00:00     365    5.2      27    0.9      201.9  -86.5    7.1  146.0   -5.8   280.9
 98 JAN 28  28:12:00:00     367    6.0      25    0.6      201.9  -86.4    7.1  146.0   -5.8   280.3
 98 JAN 28  28:13:00:00     368    6.9      25    0.7      201.9  -86.3    7.1  146.1   -5.8   279.8
 98 JAN 28  28:14:00:00     365    7.6      23    0.1      201.8  -86.2    7.1  146.1   -5.8   279.2
 98 JAN 28  28:15:00:00     367    8.6      24   -1.1      201.8  -86.2    7.2  146.1   -5.8   278.7
 98 JAN 28  28:16:00:00     400   11.1      31   -3.8      201.8  -86.1    7.2  146.1   -5.8   278.1
 98 JAN 28  28:17:00:00     416    9.6      33   -3.9      201.7  -86.0    7.2  146.1   -5.8   277.6
 98 JAN 28  28:18:00:00     424    9.2      32   -4.5      201.7  -85.9    7.2  146.1   -5.8   277.0
 98 JAN 28  28:19:00:00     431    9.7      32   -3.9      201.7  -85.8    7.3  146.1   -5.8   276.5
 98 JAN 28  28:20:00:00     417    9.7      34   -3.0      201.7  -85.7    7.3  146.1   -5.8   275.9
 98 JAN 28  28:21:00:00     396    9.5      31   -2.2      201.6  -85.6    7.3  146.1   -5.8   275.4
 98 JAN 28  28:22:00:00     409   10.2      31   -1.5      201.6  -85.5    7.3  146.1   -5.8   274.8
 98 JAN 28  28:23:00:00     399   10.9      32   -0.7      201.6  -85.4    7.4  146.1   -5.8   274.3
 98 JAN 29  29:00:00:00     402   11.7      32   -0.3      201.5  -85.3    7.4  146.1   -5.8   273.7
 98 JAN 29  29:01:00:00     402   11.2      31    0.3      201.5  -85.2    7.4  146.1   -5.8   273.2
 98 JAN 29  29:02:00:00     401   11.1      31    1.1      201.5  -85.1    7.5  146.1   -5.8   272.6
 98 JAN 29  29:03:00:00     379   10.4      27   -0.1      201.5  -85.0    7.5  146.1   -5.8   272.1
 98 JAN 29  29:04:00:00     359   10.1      23    0.0      201.4  -84.9    7.5  146.1   -5.8   271.5
 98 JAN 29  29:05:00:00     354    9.9      24    0.9      201.4  -84.8    7.5  146.1   -5.8   271.0
 98 JAN 29  29:06:00:00     360   10.8      23    1.1      201.4  -84.8    7.6  146.1   -5.8   270.4
 98 JAN 29  29:07:00:00     368    9.6      24   -0.4      201.3  -84.7    7.6  146.1   -5.8   269.9
 98 JAN 29  29:08:00:00     363   11.4      23   -2.0      201.3  -84.6    7.6  146.1   -5.8   269.3
 98 JAN 29  29:09:00:00     361   11.8      22   -2.4      201.3  -84.5    7.6  146.1   -5.8   268.8
 98 JAN 29  29:10:00:00     358   10.5      22   -1.9      201.3  -84.4    7.7  146.1   -5.8   268.2
 98 JAN 29  29:11:00:00     357    9.8      22   -0.9      201.2  -84.3    7.7  146.1   -5.8   267.7
 98 JAN 29  29:12:00:00     368   10.8      24    0.9      201.2  -84.2    7.7  146.1   -5.8   267.1
 98 JAN 29  29:13:00:00     383    8.0      29    1.5      201.2  -84.1    7.7  146.1   -5.8   266.6
 98 JAN 29  29:14:00:00     381    6.6      28    1.9      201.1  -84.0    7.8  146.1   -5.8   266.0
 98 JAN 29  29:15:00:00     371    6.0      28    0.7      201.1  -83.9    7.8  146.1   -5.8   265.5
 98 JAN 29  29:16:00:00     370    6.0      27    0.3      201.1  -83.8    7.8  146.1   -5.8   264.9
 98 JAN 29  29:17:00:00     370    5.7      27    0.9      201.0  -83.7    7.8  146.1   -5.8   264.4
 98 JAN 29  29:18:00:00     376    5.9      26    0.9      201.0  -83.6    7.9  146.1   -5.9   263.8
 98 JAN 29  29:19:00:00     373    6.8      25    0.6      201.0  -83.5    7.9  146.1   -5.9   263.3
 98 JAN 29  29:20:00:00     369    8.0      23    0.2      201.0  -83.4    7.9  146.1   -5.9   262.7
 98 JAN 29  29:21:00:00     376    6.0      24   -1.1      200.9  -83.3    7.9  146.1   -5.9   262.2
 98 JAN 29  29:22:00:00     380    9.0      25    0.1      200.9  -83.2    8.0  146.1   -5.9   261.6
 98 JAN 29  29:23:00:00     385    8.5      29    0.8      200.9  -83.1    8.0  146.1   -5.9   261.1
 98 JAN 30  30:00:00:00     382    7.2      29    0.7      200.8  -83.0    8.0  146.1   -5.9   260.5
 98 JAN 30  30:01:00:00     385    5.8      28    1.2      200.8  -82.9    8.0  146.1   -5.9   260.0
 98 JAN 30  30:02:00:00     384    5.1      28    0.7      200.8  -82.8    8.1  146.1   -5.9   259.4
 98 JAN 30  30:03:00:00     386    6.0      27    0.7      200.8  -82.7    8.1  146.1   -5.9   258.9
 98 JAN 30  30:04:00:00     391    6.4      30    1.4      200.7  -82.6    8.1  146.1   -5.9   258.3
 98 JAN 30  30:05:00:00     388    6.0      30    1.4      200.7  -82.5    8.1  146.1   -5.9   257.8
 98 JAN 30  30:06:00:00     376    6.0      28   -0.4      200.7  -82.4    8.2  146.1   -5.9   257.2
 98 JAN 30  30:07:00:00     378    6.3      26   -1.1      200.6  -82.3    8.2  146.1   -5.9   256.7
 98 JAN 30  30:08:00:00     386    8.1      27   -1.8      200.6  -82.2    8.2  146.1   -5.9   256.1
 98 JAN 30  30:09:00:00     394    6.6      29   -0.9      200.6  -82.1    8.2  146.1   -5.9   255.6
 98 JAN 30  30:10:00:00     394    5.4      30   -0.9      200.6  -82.0    8.2  146.1   -5.9   255.0
 98 JAN 30  30:11:00:00     395    6.9      30   -0.9      200.5  -81.9    8.3  146.1   -5.9   254.5
 98 JAN 30  30:12:00:00     393    7.2      29   -0.8      200.5  -81.8    8.3  146.1   -5.9   253.9
 98 JAN 30  30:13:00:00     381    7.3      26   -0.3      200.5  -81.7    8.3  146.1   -5.9   253.4
 98 JAN 30  30:14:00:00     374    6.6      25    1.0      200.4  -81.6    8.3  146.1   -5.9   252.8
 98 JAN 30  30:15:00:00     373    7.1      24    1.0      200.4  -81.5    8.4  146.1   -5.9   252.3
 98 JAN 30  30:16:00:00     374    5.3      24   -0.5      200.4  -81.4    8.4  146.1   -5.9   251.7
 98 JAN 30  30:17:00:00     372    5.5      24   -0.2      200.4  -81.3    8.4  146.1   -5.9   251.2
 98 JAN 30  30:18:00:00     369    7.1      23    0.9      200.3  -81.2    8.4  146.1   -5.9   250.6
 98 JAN 30  30:19:00:00     361    6.0      22    1.2      200.3  -81.1    8.5  146.1   -5.9   250.1
 98 JAN 30  30:20:00:00     362    5.6      22    0.5      200.3  -81.0    8.5  146.1   -5.9   249.5
 98 JAN 30  30:21:00:00     359    5.0      23   -0.2      200.2  -80.9    8.5  146.1   -5.9   249.0
 98 JAN 30  30:22:00:00     353    5.3      24    0.5      200.2  -80.8    8.5  146.1   -5.9   248.4
 98 JAN 30  30:23:00:00     349    6.2      23    0.8      200.2  -80.7    8.6  146.1   -5.9   247.9
 98 JAN 31  31:00:00:00     349    8.6      23    2.9      200.2  -80.6    8.6  146.1   -5.9   247.3
 98 JAN 31  31:01:00:00     347    5.6      25    1.5      200.1  -80.5    8.6  146.1   -5.9   246.8
 98 JAN 31  31:02:00:00     346    5.1      27    1.0      200.1  -80.4    8.6  146.1   -5.9   246.2
 98 JAN 31  31:03:00:00     341    7.4      26    2.0      200.1  -80.3    8.7  146.1   -6.0   245.7
 98 JAN 31  31:04:00:00     337    6.8      27    1.5      200.0  -80.2    8.7  146.1   -6.0   245.1
 98 JAN 31  31:05:00:00     332    6.4      25    1.7      200.0  -80.1    8.7  146.1   -6.0   244.6
 98 JAN 31  31:06:00:00     336    6.0      25    2.0      200.0  -80.0    8.7  146.1   -6.0   244.0
 98 JAN 31  31:07:00:00     338    5.2      26    2.2      200.0  -79.9    8.8  146.1   -6.0   243.5
 98 JAN 31  31:08:00:00     333    6.8      25    2.4      199.9  -79.8    8.8  146.1   -6.0   242.9
 98 JAN 31  31:09:00:00     330    6.2      25    2.0      199.9  -79.7    8.8  146.1   -6.0   242.4
 98 JAN 31  31:10:00:00     339    5.7      27    2.3      199.9  -79.6    8.8  146.1   -6.0   241.8
 98 JAN 31  31:11:00:00     328    6.6      24    2.1      199.8  -79.5    8.9  146.1   -6.0   241.3
 98 JAN 31  31:12:00:00     325    6.4      24    1.5      199.8  -79.4    8.9  146.1   -6.0   240.7
 98 JAN 31  31:13:00:00     318   10.1      21    2.4      199.8  -79.3    8.9  146.1   -6.0   240.2
 98 JAN 31  31:14:00:00     320   12.4      22    2.7      199.8  -79.2    8.9  146.1   -6.0   239.6
 98 JAN 31  31:15:00:00     322   18.7      21    2.9      199.7  -79.1    9.0  146.1   -6.0   239.1
 98 JAN 31  31:16:00:00     404   17.0      33    0.8      199.7  -79.0    9.0  146.1   -6.0   238.5
 98 JAN 31  31:17:00:00     408   16.9      33    0.7      199.7  -78.9    9.0  146.1   -6.0   238.0
 98 JAN 31  31:18:00:00     396   16.9      27    0.6      199.6  -78.8    9.0  146.1   -6.0   237.4
 98 JAN 31  31:19:00:00     399   20.9      30    1.4      199.6  -78.7    9.1  146.1   -6.0   236.9
 98 JAN 31  31:20:00:00     408   20.1      35    0.0      199.6  -78.6    9.1  146.1   -6.0   236.3
 98 JAN 31  31:21:00:00     428   22.1      39   -2.7      199.6  -78.4    9.1  146.1   -6.0   235.8
 98 JAN 31  31:22:00:00     430   22.9      40   -3.9      199.5  -78.3    9.1  146.1   -6.0   235.2
 98 JAN 31  31:23:00:00     425   22.5      41   -3.7      199.5  -78.2    9.1  146.1   -6.0   234.7
 98 FEB  1  32:00:00:00     431   26.4      41   -3.6      199.5  -78.1    9.2  146.1   -6.0   234.1
 98 FEB  1  32:01:00:00     432   23.5      35   -3.6      199.4  -78.0    9.2  146.1   -6.0   233.6
 98 FEB  1  32:02:00:00     409   18.1      43   -2.9      199.4  -77.9    9.2  146.1   -6.0   233.0
 98 FEB  1  32:03:00:00     422   14.1      41    1.0      199.4  -77.8    9.2  146.1   -6.0   232.5
 98 FEB  1  32:04:00:00     430   14.5      40    3.4      199.4  -77.7    9.3  146.1   -6.0   231.9
 98 FEB  1  32:05:00:00     442   13.6      39    1.5      199.3  -77.6    9.3  146.1   -6.0   231.4
 98 FEB  1  32:06:00:00     447   13.8      39    1.3      199.3  -77.5    9.3  146.1   -6.0   230.8
 98 FEB  1  32:07:00:00     449   15.4      39    0.3      199.3  -77.4    9.3  146.1   -6.0   230.3
 98 FEB  1  32:08:00:00     447   16.0      38   -0.8      199.3  -77.3    9.4  146.1   -6.0   229.7
 98 FEB  1  32:09:00:00     446   18.1      37   -0.2      199.2  -77.2    9.4  146.1   -6.0   229.2
 98 FEB  1  32:10:00:00     442   15.2      37    0.0      199.2  -77.1    9.4  146.1   -6.0   228.6
 98 FEB  1  32:11:00:00     442   13.5      37    0.2      199.2  -77.0    9.4  146.1   -6.0   228.1
 98 FEB  1  32:12:00:00     445   12.1      37    1.0      199.1  -76.9    9.5  146.1   -6.0   227.5
 98 FEB  1  32:13:00:00     441    7.3      39    0.2      199.1  -76.7    9.5  146.1   -6.1   227.0
 98 FEB  1  32:14:00:00     433    6.9      39   -1.0      199.1  -76.6    9.5  146.1   -6.1   226.4
 98 FEB  1  32:15:00:00     441    5.9      38   -2.2      199.1  -76.5    9.5  146.1   -6.1   225.9
 98 FEB  1  32:16:00:00     442    5.9      39   -2.1      199.0  -76.4    9.5  146.1   -6.1   225.3
 98 FEB  1  32:17:00:00     434    5.2      39   -1.2      199.0  -76.3    9.6  146.1   -6.1   224.8
 98 FEB  1  32:18:00:00     435    6.2      39   -1.2      199.0  -76.2    9.6  146.1   -6.1   224.2
 98 FEB  1  32:19:00:00     439    6.4      38   -1.5      198.9  -76.1    9.6  146.2   -6.1   223.7
 98 FEB  1  32:20:00:00     439    6.5      38   -2.4      198.9  -76.0    9.6  146.2   -6.1   223.1
 98 FEB  1  32:21:00:00     436    5.7      39   -1.7      198.9  -75.9    9.7  146.2   -6.1   222.6
 98 FEB  1  32:22:00:00     422    6.0      38   -1.5      198.9  -75.8    9.7  146.2   -6.1   222.0
 98 FEB  1  32:23:00:00     439    5.4      39   -1.9      198.8  -75.7    9.7  146.2   -6.1   221.5
 98 FEB  2  33:00:00:00     440    5.2      39   -2.1      198.8  -75.6    9.7  146.2   -6.1   220.9
 98 FEB  2  33:01:00:00     415    5.5      37    0.0      198.8  -75.4    9.8  146.2   -6.1   220.4
 98 FEB  2  33:02:00:00     413    5.4      36   -0.9      198.8  -75.3    9.8  146.2   -6.1   219.8
 98 FEB  2  33:03:00:00     404    5.0      35    1.2      198.7  -75.2    9.8  146.2   -6.1   219.3
 98 FEB  2  33:04:00:00     422    3.3      44   -0.4      198.7  -75.1    9.8  146.2   -6.1   218.7
 98 FEB  2  33:05:00:00     420    4.2      44    1.0      198.7  -75.0    9.9  146.2   -6.1   218.2
 98 FEB  2  33:06:00:00     427    7.7      37    0.5      198.6  -74.9    9.9  146.2   -6.1   217.6
 98 FEB  2  33:07:00:00     407    6.9      34   -0.3      198.6  -74.8    9.9  146.2   -6.1   217.1
 98 FEB  2  33:08:00:00     383    4.3      29    0.1      198.6  -74.7    9.9  146.2   -6.1   216.5
 98 FEB  2  33:09:00:00     375    4.4      30    2.1      198.6  -74.6    9.9  146.2   -6.1   216.0
 98 FEB  2  33:10:00:00     374    5.0      30    3.0      198.5  -74.5   10.0  146.2   -6.1   215.4
 98 FEB  2  33:11:00:00     386    5.6      26    4.5      198.5  -74.3   10.0  146.2   -6.1   214.9
 98 FEB  2  33:12:00:00     415    2.5      28    2.4      198.5  -74.2   10.0  146.2   -6.1   214.3
 98 FEB  2  33:13:00:00     376    5.5      25    3.1      198.5  -74.1   10.0  146.2   -6.1   213.8
 98 FEB  2  33:14:00:00     363    3.2      28    1.0      198.4  -74.0   10.1  146.2   -6.1   213.2
 98 FEB  2  33:15:00:00     360    3.0      25   -0.3      198.4  -73.9   10.1  146.2   -6.1   212.7
 98 FEB  2  33:16:00:00     361    3.5      28    1.3      198.4  -73.8   10.1  146.2   -6.1   212.1
 98 FEB  2  33:17:00:00     354    4.5      28    3.8      198.4  -73.7   10.1  146.2   -6.1   211.6
 98 FEB  2  33:18:00:00     358    5.0      24    4.1      198.3  -73.6   10.2  146.2   -6.1   211.0
 98 FEB  2  33:19:00:00     347    3.8      24    3.4      198.3  -73.5   10.2  146.2   -6.1   210.4
 98 FEB  2  33:20:00:00     327    2.4      22    2.5      198.3  -73.3   10.2  146.2   -6.1   209.9
 98 FEB  2  33:21:00:00     334    3.6      21    4.0      198.2  -73.2   10.2  146.2   -6.1   209.3
 98 FEB  2  33:22:00:00     347    3.7      21    3.7      198.2  -73.1   10.2  146.2   -6.1   208.8
 98 FEB  2  33:23:00:00     345    2.4      23    3.3      198.2  -73.0   10.3  146.2   -6.1   208.2
 98 FEB  3  34:00:00:00     345    2.6      22    3.8      198.2  -72.9   10.3  146.2   -6.1   207.7
 98 FEB  3  34:01:00:00     340    2.6      22    3.4      198.1  -72.8   10.3  146.2   -6.2   207.1
 98 FEB  3  34:02:00:00     334    2.7      22    4.1      198.1  -72.7   10.3  146.2   -6.2   206.6
 98 FEB  3  34:03:00:00     346    4.1      16    6.3      198.1  -72.6   10.4  146.2   -6.2   206.0
 98 FEB  3  34:04:00:00     346    3.1      15    6.3      198.1  -72.4   10.4  146.2   -6.2   205.5
 98 FEB  3  34:05:00:00     345    2.1      16    5.9      198.0  -72.3   10.4  146.2   -6.2   204.9
 98 FEB  3  34:06:00:00     305    3.0      19    4.5      198.0  -72.2   10.4  146.2   -6.2   204.4
 98 FEB  3  34:07:00:00     285    3.4      17    3.5      198.0  -72.1   10.4  146.2   -6.2   203.8
 98 FEB  3  34:08:00:00     295    4.3      18    4.4      198.0  -72.0   10.5  146.2   -6.2   203.3
 98 FEB  3  34:09:00:00     300    6.0      18    6.0      197.9  -71.9   10.5  146.2   -6.2   202.7
 98 FEB  3  34:10:00:00     294    5.4      18    7.4      197.9  -71.8   10.5  146.2   -6.2   202.2
 98 FEB  3  34:11:00:00     286    6.0      17    6.8      197.9  -71.7   10.5  146.2   -6.2   201.6
 98 FEB  3  34:12:00:00     342    2.8      28   -2.9      197.9  -71.5   10.6  146.2   -6.2   201.1
 98 FEB  3  34:13:00:00     337    2.4      27   -5.2      197.8  -71.4   10.6  146.2   -6.2   200.5
 98 FEB  3  34:14:00:00     348    3.1      30   -5.3      197.8  -71.3   10.6  146.2   -6.2   200.0
 98 FEB  3  34:15:00:00     347    3.6      29   -5.8      197.8  -71.2   10.6  146.2   -6.2   199.4
 98 FEB  3  34:16:00:00     319    3.5      22   -5.5      197.8  -71.1   10.7  146.2   -6.2   198.9
 98 FEB  3  34:17:00:00     323    3.6      23   -5.9      197.7  -71.0   10.7  146.2   -6.2   198.3
 98 FEB  3  34:18:00:00     320    2.7      21   -4.6      197.7  -70.9   10.7  146.2   -6.2   197.8
 98 FEB  3  34:19:00:00     312    2.9      19   -3.0      197.7  -70.7   10.7  146.2   -6.2   197.2
 98 FEB  3  34:20:00:00     319    4.2      19   -5.0      197.7  -70.6   10.7  146.2   -6.2   196.7
 98 FEB  3  34:21:00:00     346    2.4      18   -3.1      197.6  -70.5   10.8  146.2   -6.2   196.1
 98 FEB  3  34:22:00:00     347    4.1      14   -3.7      197.6  -70.4   10.8  146.2   -6.2   195.6
 98 FEB  3  34:23:00:00     371    5.2      20   -7.0      197.6  -70.3   10.8  146.2   -6.2   195.0
 98 FEB  4  35:00:00:00     402    3.2      28   -1.0      197.6  -70.2   10.8  146.2   -6.2   194.5
 98 FEB  4  35:01:00:00     392    5.0      25    5.3      197.5  -70.1   10.9  146.2   -6.2   193.9
 98 FEB  4  35:02:00:00     383    8.8      27    4.5      197.5  -69.9   10.9  146.2   -6.2   193.4
 98 FEB  4  35:03:00:00     355    8.4      25   -0.8      197.5  -69.8   10.9  146.2   -6.2   192.8
 98 FEB  4  35:04:00:00     340    8.5      25   -1.1      197.5  -69.7   10.9  146.2   -6.2   192.3
 98 FEB  4  35:05:00:00     325    3.7      24   -1.3      197.4  -69.6   10.9  146.2   -6.2   191.7
 98 FEB  4  35:06:00:00     359    2.6      29   -0.5      197.4  -69.5   11.0  146.2   -6.2   191.2
 98 FEB  4  35:07:00:00     353    2.6      29   -0.7      197.4  -69.4   11.0  146.2   -6.2   190.6
 98 FEB  4  35:08:00:00     341    4.3      27   -0.3      197.4  -69.2   11.0  146.2   -6.2   190.1
 98 FEB  4  35:09:00:00     350    3.1      27   -0.5      197.3  -69.1   11.0  146.2   -6.2   189.5
 98 FEB  4  35:10:00:00     357    2.9      26    0.1      197.3  -69.0   11.1  146.2   -6.2   189.0
 98 FEB  4  35:11:00:00     348    2.2      26    0.6      197.3  -68.9   11.1  146.2   -6.2   188.4
 98 FEB  4  35:12:00:00     341    2.2      25    0.5      197.3  -68.8   11.1  146.2   -6.2   187.9
 98 FEB  4  35:13:00:00     332    2.9      24    0.9      197.2  -68.7   11.1  146.2   -6.2   187.3
 98 FEB  4  35:14:00:00     322    4.3      22    1.3      197.2  -68.5   11.1  146.2   -6.2   186.8
 98 FEB  4  35:15:00:00     329    3.3      22    1.9      197.2  -68.4   11.2  146.2   -6.3   186.2
 98 FEB  4  35:16:00:00     316    4.3      20    1.5      197.2  -68.3   11.2  146.2   -6.3   185.7
 98 FEB  4  35:17:00:00     305    6.2      19    1.6      197.1  -68.2   11.2  146.2   -6.3   185.1
 98 FEB  4  35:18:00:00     301    7.8      19    1.5      197.1  -68.1   11.2  146.2   -6.3   184.6
 98 FEB  4  35:19:00:00     306    6.8      19    1.1      197.1  -68.0   11.2  146.2   -6.3   184.0
 98 FEB  4  35:20:00:00     312    8.1      20    1.9      197.1  -67.8   11.3  146.2   -6.3   183.5
 98 FEB  4  35:21:00:00     309    9.7      19    2.2      197.1  -67.7   11.3  146.2   -6.3   182.9
 98 FEB  4  35:22:00:00     297    9.3      19    1.4      197.0  -67.6   11.3  146.2   -6.3   182.4
 98 FEB  4  35:23:00:00     299    8.6      19    1.5      197.0  -67.5   11.3  146.2   -6.3   181.8
 98 FEB  5  36:00:00:00     304    8.1      19    1.9      197.0  -67.4   11.4  146.2   -6.3   181.3
 98 FEB  5  36:01:00:00     303    7.8      19    1.0      197.0  -67.3   11.4  146.2   -6.3   180.7
 98 FEB  5  36:02:00:00     304    8.6      19    0.3      196.9  -67.1   11.4  146.2   -6.3   180.2
 98 FEB  5  36:03:00:00     318    4.2      21    0.0      196.9  -67.0   11.4  146.2   -6.3   179.6
 98 FEB  5  36:04:00:00     321    7.6      22    0.3      196.9  -66.9   11.4  146.2   -6.3   179.1
 98 FEB  5  36:05:00:00     314    4.4      20    0.2      196.9  -66.8   11.5  146.2   -6.3   178.5
 98 FEB  5  36:06:00:00     314    5.6      19   -0.1      196.8  -66.7   11.5  146.2   -6.3   178.0
 98 FEB  5  36:07:00:00     315    6.9      20   -0.1      196.8  -66.5   11.5  146.2   -6.3   177.4
 98 FEB  5  36:08:00:00     313    7.5      19    0.3      196.8  -66.4   11.5  146.2   -6.3   176.9
 98 FEB  5  36:09:00:00     319    9.9      21    0.6      196.8  -66.3   11.5  146.2   -6.3   176.3
 98 FEB  5  36:10:00:00     331   11.8      25    0.6      196.8  -66.2   11.6  146.2   -6.3   175.8
 98 FEB  5  36:11:00:00     334   12.3      26    0.4      196.7  -66.1   11.6  146.2   -6.3   175.2
 98 FEB  5  36:12:00:00     355   14.2      33    0.5      196.7  -65.9   11.6  146.2   -6.3   174.7
 98 FEB  5  36:13:00:00     349   14.0      32    0.6      196.7  -65.8   11.6  146.2   -6.3   174.1
 98 FEB  5  36:14:00:00     337   12.8      28    0.2      196.7  -65.7   11.7  146.2   -6.3   173.6
 98 FEB  5  36:15:00:00     313   12.0      20    0.7      196.6  -65.6   11.7  146.2   -6.3   173.0
 98 FEB  5  36:16:00:00     317   11.3      21    0.1      196.6  -65.5   11.7  146.2   -6.3   172.5
 98 FEB  5  36:17:00:00     317   10.9      21   -0.3      196.6  -65.3   11.7  146.3   -6.3   171.9
 98 FEB  5  36:18:00:00     316   10.0      21    0.3      196.6  -65.2   11.7  146.3   -6.3   171.4
 98 FEB  5  36:19:00:00     315    9.5      21    0.3      196.6  -65.1   11.8  146.3   -6.3   170.8
 98 FEB  5  36:20:00:00     314    9.2      21    0.1      196.5  -65.0   11.8  146.3   -6.3   170.3
 98 FEB  5  36:21:00:00     300    7.1      19    0.0      196.5  -64.9   11.8  146.3   -6.3   169.7
 98 FEB  5  36:22:00:00     306    8.0      19   -1.1      196.5  -64.7   11.8  146.3   -6.3   169.2
 98 FEB  5  36:23:00:00     312    7.2      19   -3.1      196.5  -64.6   11.8  146.3   -6.3   168.6
 98 FEB  6  37:00:00:00     313    7.8      19   -3.5      196.5  -64.5   11.9  146.3   -6.3   168.1
 98 FEB  6  37:01:00:00     314    9.8      19   -4.2      196.4  -64.4   11.9  146.3   -6.3   167.5
 98 FEB  6  37:02:00:00     311   10.8      19   -4.4      196.4  -64.3   11.9  146.3   -6.3   167.0
 98 FEB  6  37:03:00:00     307    9.3      19   -2.7      196.4  -64.1   11.9  146.3   -6.3   166.4
 98 FEB  6  37:04:00:00     301   11.7      19   -4.0      196.4  -64.0   12.0  146.3   -6.3   165.9
 98 FEB  6  37:05:00:00     300   10.5      19   -4.5      196.3  -63.9   12.0  146.3   -6.3   165.3
 98 FEB  6  37:06:00:00     296   15.1      18   -5.3      196.3  -63.8   12.0  146.3   -6.4   164.8
 98 FEB  6  37:07:00:00     296   21.9      18   -6.7      196.3  -63.7   12.0  146.3   -6.4   164.2
 98 FEB  6  37:08:00:00     302   21.8      19   -7.0      196.3  -63.5   12.0  146.3   -6.4   163.7
 98 FEB  6  37:09:00:00     291   24.5      18   -6.4      196.3  -63.4   12.1  146.3   -6.4   163.1
 98 FEB  6  37:10:00:00     284   23.5      17   -6.3      196.2  -63.3   12.1  146.3   -6.4   162.6
 98 FEB  6  37:11:00:00     290   19.1      17   -5.4      196.2  -63.2   12.1  146.3   -6.4   162.0
 98 FEB  6  37:12:00:00     290   20.0      17   -5.6      196.2  -63.0   12.1  146.3   -6.4   161.5
 98 FEB  6  37:13:00:00     301   14.6      18   -4.7      196.2  -62.9   12.1  146.3   -6.4   160.9
 98 FEB  6  37:14:00:00     313   11.6      19   -4.4      196.2  -62.8   12.2  146.3   -6.4   160.4
 98 FEB  6  37:15:00:00     316   12.9      20   -4.9      196.1  -62.7   12.2  146.3   -6.4   159.8
 98 FEB  6  37:16:00:00     314   12.2      18   -5.4      196.1  -62.6   12.2  146.3   -6.4   159.3
 98 FEB  6  37:17:00:00     314   11.4      18   -4.9      196.1  -62.4   12.2  146.3   -6.4   158.7
 98 FEB  6  37:18:00:00     313   10.7      18   -3.8      196.1  -62.3   12.2  146.3   -6.4   158.2
 98 FEB  6  37:19:00:00     307    9.1      19   -3.5      196.1  -62.2   12.3  146.3   -6.4   157.6
 98 FEB  6  37:20:00:00     309    9.1      19   -3.5      196.0  -62.1   12.3  146.3   -6.4   157.1
 98 FEB  6  37:21:00:00     314    9.8      20   -3.6      196.0  -61.9   12.3  146.3   -6.4   156.5
 98 FEB  6  37:22:00:00     319   11.2      21   -4.0      196.0  -61.8   12.3  146.3   -6.4   156.0
 98 FEB  6  37:23:00:00     335   13.6      25   -2.3      196.0  -61.7   12.3  146.3   -6.4   155.4
 98 FEB  7  38:00:00:00     333   12.7      24   -2.1      196.0  -61.6   12.4  146.3   -6.4   154.9
 98 FEB  7  38:01:00:00     332    9.3      24   -1.3      196.0  -61.4   12.4  146.3   -6.4   154.3
 98 FEB  7  38:02:00:00     325   10.8      23   -0.4      195.9  -61.3   12.4  146.3   -6.4   153.8
 98 FEB  7  38:03:00:00     325   13.9      23    1.3      195.9  -61.2   12.4  146.3   -6.4   153.2
 98 FEB  7  38:04:00:00     318   11.7      21   -1.0      195.9  -61.1   12.4  146.3   -6.4   152.7
 98 FEB  7  38:05:00:00     318   10.0      21   -0.7      195.9  -60.9   12.5  146.3   -6.4   152.1
 98 FEB  7  38:06:00:00     319   10.9      22    0.3      195.9  -60.8   12.5  146.3   -6.4   151.6
 98 FEB  7  38:07:00:00     319   11.6      22    0.6      195.8  -60.7   12.5  146.3   -6.4   151.0
 98 FEB  7  38:08:00:00     317   11.7      21    0.8      195.8  -60.6   12.5  146.3   -6.4   150.5
 98 FEB  7  38:09:00:00     307   11.9      19    0.4      195.8  -60.4   12.5  146.3   -6.4   149.9
 98 FEB  7  38:10:00:00     305   13.0      19    0.9      195.8  -60.3   12.6  146.3   -6.4   149.4
 98 FEB  7  38:11:00:00     306   13.5      19    1.3      195.8  -60.2   12.6  146.3   -6.4   148.8
 98 FEB  7  38:12:00:00     304   13.6      19    1.2      195.8  -60.1   12.6  146.3   -6.4   148.3
 98 FEB  7  38:13:00:00     316   13.6      21    1.3      195.7  -59.9   12.6  146.3   -6.4   147.7
 98 FEB  7  38:14:00:00     312   16.6      19    1.9      195.7  -59.8   12.6  146.3   -6.4   147.2
 98 FEB  7  38:15:00:00     310   22.9      18    3.8      195.7  -59.7   12.7  146.3   -6.4   146.6
 98 FEB  7  38:16:00:00     306   18.6      18    2.9      195.7  -59.6   12.7  146.3   -6.4   146.1
 98 FEB  7  38:17:00:00     302   16.3      19    1.9      195.7  -59.4   12.7  146.3   -6.4   145.5
 98 FEB  7  38:18:00:00     307   19.8      18    3.4      195.6  -59.3   12.7  146.3   -6.4   145.0
 98 FEB  7  38:19:00:00     308   22.5      19    3.8      195.6  -59.2   12.7  146.3   -6.4   144.4
 98 FEB  7  38:20:00:00     312   22.6      20    4.3      195.6  -59.1   12.8  146.3   -6.4   143.9
 98 FEB  7  38:21:00:00     318   25.0      20    5.4      195.6  -58.9   12.8  146.3   -6.4   143.3
 98 FEB  7  38:22:00:00     315   21.7      20    5.0      195.6  -58.8   12.8  146.3   -6.4   142.8
 98 FEB  7  38:23:00:00     319   15.1      21    3.4      195.6  -58.7   12.8  146.3   -6.4   142.2
 98 FEB  8  39:00:00:00     313   12.7      21    2.3      195.5  -58.6   12.8  146.3   -6.5   141.7
 98 FEB  8  39:01:00:00     312   10.5      21    0.6      195.5  -58.4   12.9  146.3   -6.5   141.1
 98 FEB  8  39:02:00:00     315   10.2      21   -0.4      195.5  -58.3   12.9  146.3   -6.5   140.6
 98 FEB  8  39:03:00:00     307   10.3      20    0.9      195.5  -58.2   12.9  146.3   -6.5   140.0
 98 FEB  8  39:04:00:00     310    8.8      20    0.6      195.5  -58.1   12.9  146.3   -6.5   139.5
 98 FEB  8  39:05:00:00     317    7.1      22    0.2      195.5  -57.9   12.9  146.3   -6.5   138.9
 98 FEB  8  39:06:00:00     310    8.2      20    0.2      195.4  -57.8   13.0  146.3   -6.5   138.4
 98 FEB  8  39:07:00:00     311   10.3      20   -2.9      195.4  -57.7   13.0  146.3   -6.5   137.8
 98 FEB  8  39:08:00:00     308   11.7      19   -3.8      195.4  -57.5   13.0  146.3   -6.5   137.3
 98 FEB  8  39:09:00:00     301   11.3      19   -2.5      195.4  -57.4   13.0  146.3   -6.5   136.7
 98 FEB  8  39:10:00:00     299   10.4      19   -1.4      195.4  -57.3   13.0  146.3   -6.5   136.2
 98 FEB  8  39:11:00:00     304   11.6      19   -0.7      195.4  -57.2   13.1  146.3   -6.5   135.6
 98 FEB  8  39:12:00:00     312   13.6      19    1.3      195.3  -57.0   13.1  146.3   -6.5   135.1
 98 FEB  8  39:13:00:00     322   19.3      21    3.3      195.3  -56.9   13.1  146.3   -6.5   134.5
 98 FEB  8  39:14:00:00     334   17.1      25    1.6      195.3  -56.8   13.1  146.3   -6.5   134.0
 98 FEB  8  39:15:00:00     337   15.6      26    2.5      195.3  -56.6   13.1  146.3   -6.5   133.4
 98 FEB  8  39:16:00:00     344   19.0      27    3.7      195.3  -56.5   13.2  146.3   -6.5   132.9
 98 FEB  8  39:17:00:00     357   14.1      32    1.8      195.3  -56.4   13.2  146.3   -6.5   132.3
 98 FEB  8  39:18:00:00     378   12.4      38    0.5      195.3  -56.3   13.2  146.3   -6.5   131.8
 98 FEB  8  39:19:00:00     402   11.9      40   -0.7      195.2  -56.1   13.2  146.3   -6.5   131.2
 98 FEB  8  39:20:00:00     405   12.7      39   -1.4      195.2  -56.0   13.2  146.3   -6.5   130.7
 98 FEB  8  39:21:00:00     398   12.9      42   -2.0      195.2  -55.9   13.2  146.3   -6.5   130.1
 98 FEB  8  39:22:00:00     398   13.8      43   -1.7      195.2  -55.7   13.3  146.3   -6.5   129.6
 98 FEB  8  39:23:00:00     391   13.0      42   -1.4      195.2  -55.6   13.3  146.3   -6.5   129.0
 98 FEB  9  40:00:00:00     374   16.0      38   -0.6      195.2  -55.5   13.3  146.3   -6.5   128.5
 98 FEB  9  40:01:00:00     355   17.7      32   -0.1      195.2  -55.4   13.3  146.3   -6.5   127.9
 98 FEB  9  40:02:00:00     351   10.5      30   -0.2      195.1  -55.2   13.3  146.3   -6.5   127.4
 98 FEB  9  40:03:00:00     357    7.4      30    1.1      195.1  -55.1   13.4  146.3   -6.5   126.8
 98 FEB  9  40:04:00:00     353   17.2      31    1.7      195.1  -55.0   13.4  146.3   -6.5   126.3
 98 FEB  9  40:05:00:00     344    9.3      29    0.9      195.1  -54.8   13.4  146.3   -6.5   125.7
 98 FEB  9  40:06:00:00     342   13.7      28    2.9      195.1  -54.7   13.4  146.3   -6.5   125.2
 98 FEB  9  40:07:00:00     343   10.9      28    1.6      195.1  -54.6   13.4  146.3   -6.5   124.6
 98 FEB  9  40:08:00:00     348   10.4      30    1.3      195.1  -54.4   13.5  146.3   -6.5   124.1
 98 FEB  9  40:09:00:00     350   26.5      27    2.3      195.0  -54.3   13.5  146.3   -6.5   123.5
 98 FEB  9  40:10:00:00     361   18.9      32    1.4      195.0  -54.2   13.5  146.4   -6.5   123.0
 98 FEB  9  40:11:00:00     352   13.2      26    1.1      195.0  -54.1   13.5  146.4   -6.5   122.4
 98 FEB  9  40:12:00:00     364   11.0      34    0.9      195.0  -53.9   13.5  146.4   -6.5   121.9
 98 FEB  9  40:13:00:00     397    8.7      38   -1.7      195.0  -53.8   13.5  146.4   -6.5   121.3
 98 FEB  9  40:14:00:00     396    7.7      40   -1.2      195.0  -53.7   13.6  146.4   -6.5   120.8
 98 FEB  9  40:15:00:00     402    9.4      38   -3.5      195.0  -53.5   13.6  146.4   -6.5   120.2
 98 FEB  9  40:16:00:00     406   10.0      40   -2.8      195.0  -53.4   13.6  146.4   -6.5   119.7
 98 FEB  9  40:17:00:00     419   10.4      42   -3.5      194.9  -53.3   13.6  146.4   -6.5   119.1
 98 FEB  9  40:18:00:00     435   11.2      39   -4.2      194.9  -53.1   13.6  146.4   -6.5   118.6
 98 FEB  9  40:19:00:00     429    8.3      39   -4.0      194.9  -53.0   13.7  146.4   -6.5   118.0
 98 FEB  9  40:20:00:00     421    7.7      38   -3.1      194.9  -52.9   13.7  146.4   -6.6   117.5
 98 FEB  9  40:21:00:00     416    9.0      38   -3.1      194.9  -52.7   13.7  146.4   -6.6   116.9
 98 FEB  9  40:22:00:00     415    8.1      38   -1.3      194.9  -52.6   13.7  146.4   -6.6   116.4
 98 FEB  9  40:23:00:00     440    8.7      37   -2.5      194.9  -52.5   13.7  146.4   -6.6   115.8
 98 FEB 10  41:00:00:00     446    8.4      38   -2.1      194.9  -52.3   13.7  146.4   -6.6   115.3
 98 FEB 10  41:01:00:00     446    7.9      38   -1.6      194.8  -52.2   13.8  146.4   -6.6   114.7
 98 FEB 10  41:02:00:00     435    7.4      39   -1.6      194.8  -52.1   13.8  146.4   -6.6   114.2
 98 FEB 10  41:03:00:00     428    6.8      39   -1.7      194.8  -51.9   13.8  146.4   -6.6   113.6
 98 FEB 10  41:04:00:00     431    7.1      39   -1.9      194.8  -51.8   13.8  146.4   -6.6   113.1
 98 FEB 10  41:05:00:00     436    7.1      39   -2.1      194.8  -51.7   13.8  146.4   -6.6   112.5
 98 FEB 10  41:06:00:00     437    7.2      39   -2.2      194.8  -51.5   13.9  146.4   -6.6   112.0
 98 FEB 10  41:07:00:00     441    7.7      39   -2.4      194.8  -51.4   13.9  146.4   -6.6   111.4
 98 FEB 10  41:08:00:00     443    6.9      40    0.3      194.8  -51.3   13.9  146.4   -6.6   110.9
 98 FEB 10  41:09:00:00     429    6.4      39    0.6      194.8  -51.1   13.9  146.4   -6.6   110.3
 98 FEB 10  41:10:00:00     427    5.8      38   -0.3      194.7  -51.0   13.9  146.4   -6.6   109.8
 98 FEB 10  41:11:00:00     418    5.9      38   -1.6      194.7  -50.9   13.9  146.4   -6.6   109.2
 98 FEB 10  41:12:00:00     412    5.7      36   -1.4      194.7  -50.7   14.0  146.4   -6.6   108.7
 98 FEB 10  41:13:00:00     411    6.1      35   -1.8      194.7  -50.6   14.0  146.4   -6.6   108.1
 98 FEB 10  41:14:00:00     408    6.1      33   -1.5      194.7  -50.5   14.0  146.4   -6.6   107.6
 98 FEB 10  41:15:00:00     402    6.4      31   -1.4      194.7  -50.3   14.0  146.4   -6.6   107.0
 98 FEB 10  41:16:00:00     393    6.1      29   -1.7      194.7  -50.2   14.0  146.4   -6.6   106.5
 98 FEB 10  41:17:00:00     399    5.5      30   -2.2      194.7  -50.1   14.0  146.4   -6.6   105.9
 98 FEB 10  41:18:00:00     400    5.9      31   -1.1      194.7  -49.9   14.1  146.4   -6.6   105.4
 98 FEB 10  41:19:00:00     385    6.2      26   -1.9      194.6  -49.8   14.1  146.4   -6.6   104.8
 98 FEB 10  41:20:00:00     384    6.6      26   -2.3      194.6  -49.7   14.1  146.4   -6.6   104.3
 98 FEB 10  41:21:00:00     399    6.2      29   -2.8      194.6  -49.5   14.1  146.4   -6.6   103.7
 98 FEB 10  41:22:00:00     407    5.9      31   -3.0      194.6  -49.4   14.1  146.4   -6.6   103.2
 98 FEB 10  41:23:00:00     399    5.9      27   -3.6      194.6  -49.2   14.1  146.4   -6.6   102.6
 98 FEB 11  42:00:00:00     408    7.7      27   -4.0      194.6  -49.1   14.2  146.4   -6.6   102.1
 98 FEB 11  42:01:00:00     416   10.4      31   -5.5      194.6  -49.0   14.2  146.4   -6.6   101.5
 98 FEB 11  42:02:00:00     422   12.1      35   -5.7      194.6  -48.8   14.2  146.4   -6.6   101.0
 98 FEB 11  42:03:00:00     427   10.7      36   -5.3      194.6  -48.7   14.2  146.4   -6.6   100.4
 98 FEB 11  42:04:00:00     442    8.4      39   -4.5      194.6  -48.6   14.2  146.4   -6.6    99.9
 98 FEB 11  42:05:00:00     443    9.0      40   -4.5      194.6  -48.4   14.2  146.4   -6.6    99.3
 98 FEB 11  42:06:00:00     445    8.3      40   -3.2      194.5  -48.3   14.3  146.4   -6.6    98.8
 98 FEB 11  42:07:00:00     441    8.0      37   -3.8      194.5  -48.2   14.3  146.4   -6.6    98.2
 98 FEB 11  42:08:00:00     423    5.6      33   -1.2      194.5  -48.0   14.3  146.4   -6.6    97.7
 98 FEB 11  42:09:00:00     426    5.6      30    0.3      194.5  -47.9   14.3  146.4   -6.6    97.1
 98 FEB 11  42:10:00:00     430    6.6      34    2.7      194.5  -47.7   14.3  146.4   -6.6    96.6
 98 FEB 11  42:11:00:00     453    7.3      38    1.7      194.5  -47.6   14.3  146.4   -6.6    96.0
 98 FEB 11  42:12:00:00     466    6.3      45    0.6      194.5  -47.5   14.4  146.4   -6.6    95.5
 98 FEB 11  42:13:00:00     506    5.5      61    0.7      194.5  -47.3   14.4  146.4   -6.6    94.9
 98 FEB 11  42:14:00:00     524    6.3      64    2.1      194.5  -47.2   14.4  146.4   -6.6    94.4
 98 FEB 11  42:15:00:00     528    7.6      71    0.8      194.5  -47.1   14.4  146.4   -6.6    93.8
 98 FEB 11  42:16:00:00     514    7.9      60    2.6      194.5  -46.9   14.4  146.4   -6.6    93.3
 98 FEB 11  42:17:00:00     517    8.3      61    1.8      194.5  -46.8   14.4  146.4   -6.6    92.7
 98 FEB 11  42:18:00:00     521    7.5      61    0.9      194.4  -46.6   14.5  146.4   -6.6    92.2
 98 FEB 11  42:19:00:00     544    6.0      55    0.9      194.4  -46.5   14.5  146.4   -6.6    91.6
 98 FEB 11  42:20:00:00     535    4.7      59   -0.6      194.4  -46.4   14.5  146.4   -6.7    91.1
 98 FEB 11  42:21:00:00     535    4.9      54   -0.4      194.4  -46.2   14.5  146.4   -6.7    90.5
 98 FEB 11  42:22:00:00     543    4.2      62   -1.3      194.4  -46.1   14.5  146.4   -6.7    90.0
 98 FEB 11  42:23:00:00     531    4.1      54   -1.9      194.4  -46.0   14.5  146.4   -6.7    89.4
 98 FEB 12  43:00:00:00     539    4.9      55   -0.2      194.4  -45.8   14.6  146.4   -6.7    88.9
 98 FEB 12  43:01:00:00     520    5.0      50   -0.6      194.4  -45.7   14.6  146.4   -6.7    88.3
 98 FEB 12  43:02:00:00     538    4.8      56   -0.2      194.4  -45.5   14.6  146.4   -6.7    87.8
 98 FEB 12  43:03:00:00     520    4.2      59   -1.0      194.4  -45.4   14.6  146.4   -6.7    87.2
 98 FEB 12  43:04:00:00     507    4.9      48   -1.1      194.4  -45.3   14.6  146.4   -6.7    86.7
 98 FEB 12  43:05:00:00     536    4.4      48   -2.0      194.4  -45.1   14.6  146.4   -6.7    86.1
 98 FEB 12  43:06:00:00     518    5.2      49   -2.2      194.4  -45.0   14.7  146.4   -6.7    85.6
 98 FEB 12  43:07:00:00     521    4.8      51   -1.7      194.4  -44.8   14.7  146.4   -6.7    85.0
 98 FEB 12  43:08:00:00     503    5.6      46   -1.7      194.3  -44.7   14.7  146.4   -6.7    84.5
 98 FEB 12  43:09:00:00     491    6.4      45   -2.4      194.3  -44.6   14.7  146.4   -6.7    83.9
 98 FEB 12  43:10:00:00     480    6.9      44   -2.5      194.3  -44.4   14.7  146.4   -6.7    83.4
 98 FEB 12  43:11:00:00     476    5.3      48   -2.0      194.3  -44.3   14.7  146.4   -6.7    82.8
 98 FEB 12  43:12:00:00     470    5.4      47   -2.1      194.3  -44.1   14.7  146.4   -6.7    82.3
 98 FEB 12  43:13:00:00     470    5.3      47   -1.8      194.3  -44.0   14.8  146.4   -6.7    81.7
 98 FEB 12  43:14:00:00     460    5.3      44   -1.6      194.3  -43.9   14.8  146.4   -6.7    81.2
 98 FEB 12  43:15:00:00     465    4.3      42   -1.1      194.3  -43.7   14.8  146.4   -6.7    80.6
 98 FEB 12  43:16:00:00     457    4.1      41   -0.4      194.3  -43.6   14.8  146.4   -6.7    80.1
 98 FEB 12  43:17:00:00     457    4.5      38    0.7      194.3  -43.4   14.8  146.4   -6.7    79.5
 98 FEB 12  43:18:00:00     459    4.4      37   -0.1      194.3  -43.3   14.8  146.4   -6.7    79.0
 98 FEB 12  43:19:00:00     455    4.6      35    0.1      194.3  -43.1   14.9  146.4   -6.7    78.4
 98 FEB 12  43:20:00:00     454    4.2      37   -0.2      194.3  -43.0   14.9  146.4   -6.7    77.9
 98 FEB 12  43:21:00:00     451    3.6      39   -0.4      194.3  -42.9   14.9  146.4   -6.7    77.3
 98 FEB 12  43:22:00:00     437    3.9      40   -0.5      194.3  -42.7   14.9  146.4   -6.7    76.8
 98 FEB 12  43:23:00:00     426    4.6      39   -0.5      194.3  -42.6   14.9  146.5   -6.7    76.2
 98 FEB 13  44:00:00:00     433    4.0      38    0.1      194.3  -42.4   14.9  146.5   -6.7    75.7
 98 FEB 13  44:01:00:00     435    3.9      38   -0.1      194.2  -42.3   14.9  146.5   -6.7    75.1
 98 FEB 13  44:02:00:00     434    3.9      38   -0.4      194.2  -42.2   15.0  146.5   -6.7    74.6
 98 FEB 13  44:03:00:00     436    4.1      37   -1.6      194.2  -42.0   15.0  146.5   -6.7    74.0
 98 FEB 13  44:04:00:00     408    4.0      32   -0.1      194.2  -41.9   15.0  146.5   -6.7    73.5
 98 FEB 13  44:05:00:00     405    4.0      30   -1.5      194.2  -41.7   15.0  146.5   -6.7    72.9
 98 FEB 13  44:06:00:00     386    5.5      26   -1.3      194.2  -41.6   15.0  146.5   -6.7    72.4
 98 FEB 13  44:07:00:00     397    5.2      29   -1.4      194.2  -41.4   15.0  146.5   -6.7    71.8
 98 FEB 13  44:08:00:00     394    5.2      29   -0.2      194.2  -41.3   15.0  146.5   -6.7    71.3
 98 FEB 13  44:09:00:00     399    5.6      29    1.5      194.2  -41.2   15.1  146.5   -6.7    70.7
 98 FEB 13  44:10:00:00     397    5.5      30    1.2      194.2  -41.0   15.1  146.5   -6.7    70.2
 98 FEB 13  44:11:00:00     395    5.8      30    0.7      194.2  -40.9   15.1  146.5   -6.7    69.6
 98 FEB 13  44:12:00:00     394    6.9      29    2.9      194.2  -40.7   15.1  146.5   -6.7    69.1
 98 FEB 13  44:13:00:00     395    6.3      29    2.3      194.2  -40.6   15.1  146.5   -6.7    68.5
 98 FEB 13  44:14:00:00     389    6.7      28    0.9      194.2  -40.4   15.1  146.5   -6.7    68.0
 98 FEB 13  44:15:00:00     387    6.7      28    0.7      194.2  -40.3   15.2  146.5   -6.7    67.4
 98 FEB 13  44:16:00:00     385    6.8      28    1.5      194.2  -40.1   15.2  146.5   -6.7    66.9
 98 FEB 13  44:17:00:00     385    4.6      29   -0.4      194.2  -40.0   15.2  146.5   -6.7    66.3
 98 FEB 13  44:18:00:00     381    6.7      27    1.6      194.2  -39.9   15.2  146.5   -6.7    65.8
 98 FEB 13  44:19:00:00     383    6.0      26    0.6      194.2  -39.7   15.2  146.5   -6.7    65.2
 98 FEB 13  44:20:00:00     372    6.4      25    1.1      194.2  -39.6   15.2  146.5   -6.7    64.7
 98 FEB 13  44:21:00:00     375    5.7      28    1.4      194.2  -39.4   15.2  146.5   -6.7    64.1
 98 FEB 13  44:22:00:00     376    7.0      31    2.9      194.2  -39.3   15.2  146.5   -6.7    63.6
 98 FEB 13  44:23:00:00     376    9.5      26    4.1      194.2  -39.1   15.3  146.5   -6.7    63.0
 98 FEB 14  45:00:00:00     369    5.9      31    3.0      194.2  -39.0   15.3  146.5   -6.8    62.5
 98 FEB 14  45:01:00:00     368    4.3      34    1.5      194.2  -38.8   15.3  146.5   -6.8    61.9
 98 FEB 14  45:02:00:00     362    4.4      31    1.0      194.2  -38.7   15.3  146.5   -6.8    61.4
 98 FEB 14  45:03:00:00     361    5.3      30    2.3      194.2  -38.5   15.3  146.5   -6.8    60.8
 98 FEB 14  45:04:00:00     360    4.9      31    1.6      194.2  -38.4   15.3  146.5   -6.8    60.3
 98 FEB 14  45:05:00:00     359    4.8      30    0.2      194.1  -38.3   15.3  146.5   -6.8    59.7
 98 FEB 14  45:06:00:00     362    5.6      28   -0.8      194.1  -38.1   15.4  146.5   -6.8    59.2
 98 FEB 14  45:07:00:00     359    5.0      29    0.3      194.1  -38.0   15.4  146.5   -6.8    58.6
 98 FEB 14  45:08:00:00     355    4.3      30   -0.6      194.1  -37.8   15.4  146.5   -6.8    58.1
 98 FEB 14  45:09:00:00     357    4.4      32   -0.9      194.1  -37.7   15.4  146.5   -6.8    57.5
 98 FEB 14  45:10:00:00     349    4.3      30   -0.6      194.1  -37.5   15.4  146.5   -6.8    57.0
 98 FEB 14  45:11:00:00     347    5.5      30    1.8      194.1  -37.4   15.4  146.5   -6.8    56.4
 98 FEB 14  45:12:00:00     345    4.8      27    0.3      194.1  -37.2   15.4  146.5   -6.8    55.9
 98 FEB 14  45:13:00:00     347    5.2      27   -1.3      194.1  -37.1   15.5  146.5   -6.8    55.3
 98 FEB 14  45:14:00:00     348    5.0      28    0.0      194.1  -36.9   15.5  146.5   -6.8    54.8
 98 FEB 14  45:15:00:00     353    6.7      28   -1.4      194.1  -36.8   15.5  146.5   -6.8    54.2
 98 FEB 14  45:16:00:00     350    6.3      26    0.1      194.1  -36.6   15.5  146.5   -6.8    53.7
 98 FEB 14  45:17:00:00     359    8.7      25   -2.7      194.1  -36.5   15.5  146.5   -6.8    53.1
 98 FEB 14  45:18:00:00     350    7.0      25   -1.1      194.1  -36.3   15.5  146.5   -6.8    52.6
 98 FEB 14  45:19:00:00     346    6.2      26   -0.5      194.1  -36.2   15.5  146.5   -6.8    52.0
 98 FEB 14  45:20:00:00     347    7.7      25    0.2      194.1  -36.0   15.5  146.5   -6.8    51.5
 98 FEB 14  45:21:00:00     353    8.6      23    0.9      194.1  -35.9   15.6  146.5   -6.8    50.9
 98 FEB 14  45:22:00:00     361    8.2      24    0.2      194.1  -35.7   15.6  146.5   -6.8    50.4
 98 FEB 14  45:23:00:00     369    8.4      26   -1.2      194.1  -35.6   15.6  146.5   -6.8    49.8
 98 FEB 15  46:00:00:00     372    8.1      26   -1.0      194.1  -35.5   15.6  146.5   -6.8    49.3
 98 FEB 15  46:01:00:00     364    8.8      24   -0.1      194.1  -35.3   15.6  146.5   -6.8    48.7
 98 FEB 15  46:02:00:00     360    9.1      23    0.1      194.1  -35.2   15.6  146.5   -6.8    48.2
 98 FEB 15  46:03:00:00     355    8.5      21    1.5      194.1  -35.0   15.6  146.5   -6.8    47.6
 98 FEB 15  46:04:00:00     351    8.7      21    2.2      194.1  -34.9   15.6  146.5   -6.8    47.1
 98 FEB 15  46:05:00:00     348    6.6      20    2.4      194.1  -34.7   15.7  146.5   -6.8    46.5
 98 FEB 15  46:06:00:00     350    4.7      21    0.1      194.1  -34.6   15.7  146.5   -6.8    46.0
 98 FEB 15  46:07:00:00     354    3.9      22    0.3      194.1  -34.4   15.7  146.5   -6.8    45.4
 98 FEB 15  46:08:00:00     363    3.7      24    1.3      194.1  -34.3   15.7  146.5   -6.8    44.9
 98 FEB 15  46:09:00:00     370    3.5      25    1.2      194.1  -34.1   15.7  146.5   -6.8    44.3
 98 FEB 15  46:10:00:00     368    3.7      24    1.3      194.1  -34.0   15.7  146.5   -6.8    43.8
 98 FEB 15  46:11:00:00     360    4.1      22    1.6      194.1  -33.8   15.7  146.5   -6.8    43.2
 98 FEB 15  46:12:00:00     352    4.4      23    1.2      194.1  -33.7   15.7  146.5   -6.8    42.7
 98 FEB 15  46:13:00:00     359    3.6      23    0.6      194.1  -33.5   15.8  146.5   -6.8    42.1
 98 FEB 15  46:14:00:00     357    3.3      23   -0.3      194.1  -33.4   15.8  146.5   -6.8    41.6
 98 FEB 15  46:15:00:00     360    3.1      22   -0.8      194.1  -33.2   15.8  146.5   -6.8    41.0
 98 FEB 15  46:16:00:00     356    2.6      27    0.4      194.1  -33.1   15.8  146.5   -6.8    40.5
 98 FEB 15  46:17:00:00     357    2.2      28   -0.6      194.1  -32.9   15.8  146.5   -6.8    39.9
 98 FEB 15  46:18:00:00     351    2.8      25   -0.4      194.1  -32.8   15.8  146.5   -6.8    39.4
 98 FEB 15  46:19:00:00     357    2.9      26   -0.8      194.1  -32.6   15.8  146.5   -6.8    38.8
 98 FEB 15  46:20:00:00     370    2.9      31   -0.7      194.1  -32.5   15.8  146.5   -6.8    38.3
 98 FEB 15  46:21:00:00     380    4.2      28   -0.1      194.1  -32.3   15.8  146.5   -6.8    37.7
 98 FEB 15  46:22:00:00     367    4.9      23    0.0      194.1  -32.1   15.9  146.5   -6.8    37.2
 98 FEB 15  46:23:00:00     359    6.4      22    0.5      194.1  -32.0   15.9  146.5   -6.8    36.6
 98 FEB 16  47:00:00:00     359    5.3      24   -0.6      194.1  -31.8   15.9  146.5   -6.8    36.1
 98 FEB 16  47:01:00:00     354    5.1      23   -1.5      194.1  -31.7   15.9  146.5   -6.8    35.5
 98 FEB 16  47:02:00:00     352    5.3      22   -1.3      194.1  -31.5   15.9  146.5   -6.8    35.0
 98 FEB 16  47:03:00:00     350    4.6      23   -0.6      194.1  -31.4   15.9  146.5   -6.8    34.4
 98 FEB 16  47:04:00:00     360    5.6      25   -1.0      194.1  -31.2   15.9  146.5   -6.8    33.9
 98 FEB 16  47:05:00:00     381    5.4      30   -0.9      194.1  -31.1   15.9  146.5   -6.8    33.3
 98 FEB 16  47:06:00:00     388    5.3      32   -1.9      194.1  -30.9   15.9  146.5   -6.8    32.8
 98 FEB 16  47:07:00:00     411    5.0      42   -1.6      194.1  -30.8   16.0  146.6   -6.8    32.2
 98 FEB 16  47:08:00:00     400    5.9      36   -2.3      194.1  -30.6   16.0  146.6   -6.8    31.7
 98 FEB 16  47:09:00:00     384    7.3      29   -2.7      194.1  -30.5   16.0  146.6   -6.8    31.1
 98 FEB 16  47:10:00:00     376    8.7      29   -3.3      194.1  -30.3   16.0  146.6   -6.9    30.6
 98 FEB 16  47:11:00:00     375    9.9      28   -3.7      194.1  -30.2   16.0  146.6   -6.9    30.0
 98 FEB 16  47:12:00:00     376   10.9      27   -4.3      194.1  -30.0   16.0  146.6   -6.9    29.5
 98 FEB 16  47:13:00:00     376   11.1      27   -4.6      194.1  -29.9   16.0  146.6   -6.9    28.9
 98 FEB 16  47:14:00:00     377   14.4      26   -5.2      194.1  -29.7   16.0  146.6   -6.9    28.4
 98 FEB 16  47:15:00:00     377   15.7      26   -5.7      194.1  -29.6   16.0  146.6   -6.9    27.8
 98 FEB 16  47:16:00:00     372   14.8      25   -5.4      194.1  -29.4   16.1  146.6   -6.9    27.3
 98 FEB 16  47:17:00:00     370   12.9      25   -4.9      194.1  -29.2   16.1  146.6   -6.9    26.7
 98 FEB 16  47:18:00:00     372   10.8      25   -4.5      194.1  -29.1   16.1  146.6   -6.9    26.2
 98 FEB 16  47:19:00:00     370    8.4      25   -4.1      194.2  -28.9   16.1  146.6   -6.9    25.6
 98 FEB 16  47:20:00:00     373    9.1      25   -4.7      194.2  -28.8   16.1  146.6   -6.9    25.1
 98 FEB 16  47:21:00:00     371    8.8      25   -5.2      194.2  -28.6   16.1  146.6   -6.9    24.5
 98 FEB 16  47:22:00:00     373    6.3      26   -4.4      194.2  -28.5   16.1  146.6   -6.9    24.0
 98 FEB 16  47:23:00:00     372    4.5      28   -3.4      194.2  -28.3   16.1  146.6   -6.9    23.4
 98 FEB 17  48:00:00:00     373    4.4      27   -3.4      194.2  -28.2   16.1  146.6   -6.9    22.9
 98 FEB 17  48:01:00:00     371    4.3      27   -3.1      194.2  -28.0   16.1  146.6   -6.9    22.3
 98 FEB 17  48:02:00:00     373    4.5      27   -3.0      194.2  -27.9   16.2  146.6   -6.9    21.8
 98 FEB 17  48:03:00:00     374    4.8      29   -3.1      194.2  -27.7   16.2  146.6   -6.9    21.2
 98 FEB 17  48:04:00:00     372    4.9      31   -3.0      194.2  -27.5   16.2  146.6   -6.9    20.7
 98 FEB 17  48:05:00:00     371    5.6      31   -1.9      194.2  -27.4   16.2  146.6   -6.9    20.1
 98 FEB 17  48:06:00:00     401    8.7      30   -3.0      194.2  -27.2   16.2  146.6   -6.9    19.6
 98 FEB 17  48:07:00:00     412   11.7      27   -5.7      194.2  -27.1   16.2  146.6   -6.9    19.0
 98 FEB 17  48:08:00:00     392    7.1      25   -4.1      194.2  -26.9   16.2  146.6   -6.9    18.5
 98 FEB 17  48:09:00:00     391   11.3      27   -4.1      194.2  -26.8   16.2  146.6   -6.9    17.9
 98 FEB 17  48:10:00:00     387    9.6      27   -3.1      194.2  -26.6   16.2  146.6   -6.9    17.4
 98 FEB 17  48:11:00:00     383    7.6      25   -2.2      194.2  -26.4   16.2  146.6   -6.9    16.8
 98 FEB 17  48:12:00:00     391    7.5      27   -2.7      194.2  -26.3   16.3  146.6   -6.9    16.3
 98 FEB 17  48:13:00:00     394    8.4      29   -3.3      194.2  -26.1   16.3  146.6   -6.9    15.7
 98 FEB 17  48:14:00:00     399   10.0      31   -3.5      194.2  -26.0   16.3  146.6   -6.9    15.2
 98 FEB 17  48:15:00:00     388    9.2      28   -2.2      194.2  -25.8   16.3  146.6   -6.9    14.6
 98 FEB 17  48:16:00:00     382    9.1      25   -1.3      194.2  -25.7   16.3  146.6   -6.9    14.1
 98 FEB 17  48:17:00:00     377    8.8      24   -1.1      194.2  -25.5   16.3  146.6   -6.9    13.5
 98 FEB 17  48:18:00:00     378    7.1      25   -0.2      194.2  -25.4   16.3  146.6   -6.9    13.0
 98 FEB 17  48:19:00:00     380    7.3      26   -0.1      194.2  -25.2   16.3  146.6   -6.9    12.4
 98 FEB 17  48:20:00:00     387   10.4      31    0.3      194.2  -25.0   16.3  146.6   -6.9    11.9
 98 FEB 17  48:21:00:00     392   14.2      40    0.7      194.2  -24.9   16.3  146.6   -6.9    11.3
 98 FEB 17  48:22:00:00     403   14.7      40    1.5      194.2  -24.7   16.3  146.6   -6.9    10.8
 98 FEB 17  48:23:00:00     415   18.3      40    2.3      194.2  -24.6   16.4  146.6   -6.9    10.2
 98 FEB 18  49:00:00:00     410   19.9      41    3.9      194.2  -24.4   16.4  146.6   -6.9     9.7
 98 FEB 18  49:01:00:00     413   18.7      45    3.2      194.2  -24.2   16.4  146.6   -6.9     9.1
 98 FEB 18  49:02:00:00     387   22.0      38    4.3      194.2  -24.1   16.4  146.6   -6.9     8.6
 98 FEB 18  49:03:00:00     386   20.1      36    3.6      194.3  -23.9   16.4  146.6   -6.9     8.0
 98 FEB 18  49:04:00:00     373   15.3      30    3.5      194.3  -23.8   16.4  146.6   -6.9     7.5
 98 FEB 18  49:05:00:00     370   15.4      26    2.5      194.3  -23.6   16.4  146.6   -6.9     6.9
 98 FEB 18  49:06:00:00     376   14.2      26   -0.2      194.3  -23.5   16.4  146.6   -6.9     6.4
 98 FEB 18  49:07:00:00     380   19.4      25   -4.8      194.3  -23.3   16.4  146.6   -6.9     5.8
 98 FEB 18  49:08:00:00     408   18.8      29   -2.3      194.3  -23.1   16.4  146.6   -6.9     5.3
 98 FEB 18  49:09:00:00     392   18.0      28   -2.1      194.3  -23.0   16.4  146.6   -6.9     4.7
 98 FEB 18  49:10:00:00     389   16.9      28   -1.4      194.3  -22.8   16.4  146.6   -6.9     4.2
 98 FEB 18  49:11:00:00     414   13.9      30   -3.1      194.3  -22.7   16.5  146.6   -6.9     3.6
 98 FEB 18  49:12:00:00     392   15.1      29   -3.4      194.3  -22.5   16.5  146.6   -6.9     3.1
 98 FEB 18  49:13:00:00     386   15.4      28   -4.1      194.3  -22.3   16.5  146.6   -6.9     2.5
 98 FEB 18  49:14:00:00     363   15.5      23   -1.9      194.3  -22.2   16.5  146.6   -6.9     2.0
 98 FEB 18  49:15:00:00     395   17.1      39   -2.5      194.3  -22.0   16.5  146.6   -6.9     1.4
 98 FEB 18  49:16:00:00     419   15.3      39   -5.9      194.3  -21.9   16.5  146.6   -6.9     0.9
 98 FEB 18  49:17:00:00     402    8.9      34   -5.5      194.3  -21.7   16.5  146.6   -6.9     0.3
 98 FEB 18  49:18:00:00     410    6.5      42   -5.7      194.3  -21.5   16.5  146.6   -6.9   359.8
 98 FEB 18  49:19:00:00     359    9.8      39   -2.1      194.3  -21.4   16.5  146.6   -6.9   359.2